Goshen, IN

8:24 AM EST on November 15, 2018 (GMT -0500)
Shanklin Park | | Change Station
Active Advisory: Winter Weather Advisory

Elev 797 ft 41.58 °N, 85.84 °W | Updated 4 minutes ago

Snow
Snow
28 °F
Feels Like 28 °F
N
0.9
Wind Variable Wind from ENE
Gusts 2.7 mph

Today
High -- | Low -- °F
--% Chance of Precip.
Yesterday
High -- | Low -- °F
Precip. -- in
Pressure 30.15 in
Visibility 0.5 miles
Clouds Overcast 2300 ft
Windchill 28 °F
Dew Point 26 °F
Humidity 94%
Rainfall 0.00 in
Snow Depth Not available.
7:32 AM 5:23 PM
Waxing Crescent, 50% visible
SPECI KGSH 151306Z AUTO 11006KT 1/2SM SN FZFG OVC023 M02/M04 A3015 RMK AO2 P0001 T10221039
Pressure 30.15 in
Visibility 0.5 miles
Clouds Overcast 2300 ft
Windchill 28 °F
Dew Point 26 °F
Humidity 94%
Rainfall 0.00 in
Snow Depth Not available.
7:32 AM 5:23 PM
Waxing Crescent, 50% visible
SPECI KGSH 151306Z AUTO 11006KT 1/2SM SN FZFG OVC023 M02/M04 A3015 RMK AO2 P0001 T10221039

Get Your Daily Forecast Email!

Thanks for signing up!

Be on the lookout for a verification email in your inbox.

You'll start receiving severe weather alerts in your inbox..

×

10-Day Weather Forecast

Almanac

Astronomy

Nov. 15, 2018 Rise Set
Actual Time
Civil Twilight
Nautical Twilight
Astronomical Twilight
Moon
Length of Visible Light
Length of Day
Tomorrow will be .
, % of the Moon is Illuminated

Today's Extremes

State Highs State Lows

Community

WunderPhotos

Category 6

Welcome to Category 6. This is the collective home for Weather Underground's featured writeups by Dr. Jeff Masters (right), Bob Henson (left), Chris Burt, and other regular contributors.

Nearby

Air Quality

  Air Quality AQ Index Pollutant
Not available.

Snow Depth

Station Depth Elevation

Earthquake Activity

City Distance Mag. Time & Date
Minimum magnitude displayed is 2.5.

Coastal Water Temperatures

Place Temperature

Stations

Nearby Weather Stations

Station Location Temp. Windchill Dew Point Humidity Wind Precip. Elev Updated Type
                   

Watches & Warnings

Winter Weather Advisory
Issued: 4:20 AM CST Nov. 15, 2018 – National Weather Service

... Winter Weather Advisory remains in effect until noon EST
/11 am CST/ today...

* what... snow mixed at times with sleet and freezing. Total
accumulations of 1 to 3 inches expected.

* Where... portions of northern Indiana and Northwest Ohio.

* When... from 5 am EST /4 am CST/ early this morning to noon EST
/11 am CST/ today.

* Additional details... plan on slippery Road conditions. The
hazardous conditions will impact the morning commute.
Conditions will improve this afternoon.

Precautionary/preparedness actions...

A Winter Weather Advisory for snow means periods of snow will
cause primarily travel difficulties. Expect snow covered roads
and limited visibilities, and use caution while driving.